Time;durP1;ratioP1;P1;durP2;ratioP2;P2;SDS_P1;SDS_P2;PMS_P1;PMS_P2;Temp;Humidity;BMP_temperature;BMP_pressure;BME280_temperature;BME280_humidity;BME280_pressure;Samples;Min_cycle;Max_cycle;Signal;HPM_P1;HPM_P2
2020/12/02 00:01:13;;;;;;;7.60;5.25;;;;;;;20.77;43.78;100270.03;5084151;28;20404;-81
2020/12/02 00:03:45;;;;;;;8.68;4.85;;;;;;;20.77;43.46;100260.34;5089636;28;20032;-78
2020/12/02 00:06:12;;;;;;;7.57;4.97;;;;;;;20.76;43.57;100263.03;5077472;28;20043;-80
2020/12/02 00:08:42;;;;;;;7.07;4.35;;;;;;;20.76;43.64;100261.25;5072473;28;20063;-79
2020/12/02 00:11:10;;;;;;;6.43;4.50;;;;;;;20.75;43.71;100263.88;5070434;28;20515;-81
2020/12/02 00:13:43;;;;;;;7.45;4.45;;;;;;;20.74;43.77;100263.00;5072325;28;20028;-81
2020/12/02 00:16:13;;;;;;;8.48;4.70;;;;;;;20.73;43.87;100263.91;5070329;28;20036;-80
2020/12/02 00:18:38;;;;;;;6.03;4.20;;;;;;;20.75;43.80;100258.63;5071001;28;20036;-80
2020/12/02 00:21:05;;;;;;;10.15;4.40;;;;;;;20.73;43.51;100263.91;5083545;28;20032;-77
2020/12/02 00:23:31;;;;;;;7.30;4.32;;;;;;;20.73;43.56;100265.69;5092063;28;20404;-80
2020/12/02 00:25:57;;;;;;;9.05;4.85;;;;;;;20.71;43.66;100257.81;5090866;28;20055;-77
2020/12/02 00:28:22;;;;;;;6.38;4.18;;;;;;;20.71;43.80;100256.94;5088529;28;20489;-79
2020/12/02 00:30:51;;;;;;;6.35;3.75;;;;;;;20.70;43.76;100253.47;5069766;28;20062;-77
2020/12/02 00:33:22;;;;;;;7.03;4.20;;;;;;;20.68;43.75;100258.75;5072471;28;20127;-79
2020/12/02 00:35:48;;;;;;;6.07;4.20;;;;;;;20.69;43.71;100254.38;5070540;28;20028;-77
2020/12/02 00:38:14;;;;;;;8.75;3.78;;;;;;;20.71;43.63;100259.59;5076064;28;20462;-80
2020/12/02 00:40:44;;;;;;;6.13;4.50;;;;;;;20.68;43.70;100258.75;5091682;28;20098;-81
2020/12/02 00:43:12;;;;;;;6.75;4.05;;;;;;;20.71;43.72;100262.22;5090590;28;20036;-79
2020/12/02 00:45:38;;;;;;;8.00;4.13;;;;;;;20.72;43.58;100261.31;5090447;28;20504;-81
2020/12/02 00:48:10;;;;;;;6.03;4.05;;;;;;;20.68;43.75;100264.00;5092174;28;20111;-81
2020/12/02 00:50:36;;;;;;;6.03;4.03;;;;;;;20.71;44.00;100255.16;5090612;28;20028;-80
2020/12/02 00:53:06;;;;;;;5.63;4.05;;;;;;;20.72;43.69;100253.41;5090909;28;20043;-79
2020/12/02 00:55:33;;;;;;;5.70;3.85;;;;;;;20.71;43.72;100262.22;5069638;28;20037;-78
2020/12/02 00:58:01;;;;;;;6.07;3.97;;;;;;;20.73;43.66;100257.78;5082251;28;20123;-79
2020/12/02 01:00:29;;;;;;;5.68;3.60;;;;;;;20.71;43.60;100262.22;5082209;28;20044;-77
2020/12/02 01:03:02;;;;;;;6.30;4.13;;;;;;;20.71;43.55;100265.69;5069918;28;20679;-80
2020/12/02 01:05:28;;;;;;;6.38;3.65;;;;;;;20.72;43.72;100261.31;5085228;28;20054;-80
2020/12/02 01:07:54;;;;;;;6.85;4.10;;;;;;;20.69;43.93;100255.22;5091738;28;20040;-78
2020/12/02 01:10:20;;;;;;;8.45;4.00;;;;;;;20.72;43.53;100253.41;5092437;28;20046;-80
2020/12/02 01:12:48;;;;;;;5.57;4.28;;;;;;;20.70;43.75;100253.47;5092543;28;20032;-77
2020/12/02 01:15:19;;;;;;;5.07;3.55;;;;;;;20.71;43.80;100259.59;5093134;28;20400;-79
2020/12/02 01:18:13;;;;;;;6.28;3.33;;;;;;;20.68;43.78;100256.13;5092789;28;20039;-80
2020/12/02 01:20:38;;;;;;;6.93;3.60;;;;;;;20.69;43.54;100260.47;5092526;28;20123;-77
2020/12/02 01:23:04;;;;;;;5.30;3.60;;;;;;;20.70;43.55;100258.72;5093937;28;20119;-79
2020/12/02 01:25:29;;;;;;;5.40;3.53;;;;;;;20.70;43.57;100264.00;5093986;28;20032;-81
2020/12/02 01:28:03;;;;;;;5.60;3.92;;;;;;;20.69;43.89;100262.28;5094107;28;20063;-78
2020/12/02 01:30:30;;;;;;;5.90;4.38;;;;;;;20.69;43.47;100265.75;5092104;28;20051;-80
2020/12/02 01:32:55;;;;;;;5.78;3.58;;;;;;;20.69;43.58;100262.28;5093103;28;20059;-81
2020/12/02 01:35:23;;;;;;;4.97;3.15;;;;;;;20.69;43.54;100265.75;5093954;28;20485;-80
2020/12/02 01:38:04;;;;;;;6.00;3.88;;;;;;;20.67;43.69;100258.78;5092947;28;20036;-80
2020/12/02 01:40:35;;;;;;;4.05;3.22;;;;;;;20.67;43.71;100259.66;5079474;28;20123;-77
2020/12/02 01:43:04;;;;;;;6.43;3.40;;;;;;;20.66;43.61;100268.44;5071876;28;20074;-81
2020/12/02 01:45:39;;;;;;;5.15;3.65;;;;;;;20.68;43.67;100277.19;5073045;28;20028;-78
2020/12/02 01:48:30;;;;;;;7.80;3.60;;;;;;;20.67;43.57;100271.97;5071867;28;20028;-80
2020/12/02 01:51:06;;;;;;;5.90;3.60;;;;;;;20.67;43.63;100266.69;5072985;28;20032;-79
2020/12/02 01:53:58;;;;;;;6.32;3.60;;;;;;;20.66;43.72;100270.22;5075959;28;20040;-80
2020/12/02 01:56:41;;;;;;;5.22;3.22;;;;;;;20.64;43.56;100267.59;5072120;28;20041;-78
2020/12/02 01:59:19;;;;;;;5.57;3.53;;;;;;;20.68;43.56;100276.34;5071228;28;20113;-80
2020/12/02 02:01:53;;;;;;;4.47;3.25;;;;;;;20.64;43.50;100280.78;5091355;28;20052;-79
2020/12/02 02:04:22;;;;;;;4.90;3.00;;;;;;;20.67;43.70;100275.44;5093223;28;20048;-77
2020/12/02 02:07:01;;;;;;;5.03;3.35;;;;;;;20.66;43.77;100273.72;5091852;28;20036;-79
2020/12/02 02:09:28;;;;;;;5.05;3.53;;;;;;;20.66;43.66;100270.22;5091579;28;20040;-78
2020/12/02 02:12:31;;;;;;;6.00;3.78;;;;;;;20.64;43.57;100270.25;5091231;28;20519;-78
2020/12/02 02:15:05;;;;;;;5.53;3.20;;;;;;;20.65;43.53;100276.41;5078300;28;20111;-79
2020/12/02 02:17:31;;;;;;;4.60;3.47;;;;;;;20.67;43.51;100272.81;5073121;28;20607;-78
2020/12/02 02:19:58;;;;;;;5.32;3.38;;;;;;;20.65;43.72;100271.97;5070317;28;20060;-81
2020/12/02 02:22:23;;;;;;;5.57;3.55;;;;;;;20.65;43.71;100269.34;5072456;28;20684;-78
2020/12/02 02:24:49;;;;;;;4.75;3.80;;;;;;;20.65;43.57;100258.81;5078074;28;20110;-80
2020/12/02 02:27:18;;;;;;;4.78;3.35;;;;;;;20.67;43.62;100269.34;5075571;28;20055;-80
2020/12/02 02:29:46;;;;;;;5.00;3.92;;;;;;;20.64;43.69;100259.72;5082938;28;20564;-79
2020/12/02 02:32:19;;;;;;;4.88;3.75;;;;;;;20.63;43.76;100263.25;5091122;28;20480;-79
2020/12/02 02:34:56;;;;;;;5.83;3.50;;;;;;;20.62;43.48;100256.28;5091518;28;20039;-80
2020/12/02 02:37:25;;;;;;;4.80;3.78;;;;;;;20.65;43.86;100257.97;5092827;28;20278;-76
2020/12/02 02:39:52;;;;;;;4.57;3.55;;;;;;;20.65;43.75;100255.31;5073328;28;20704;-79
2020/12/02 02:42:46;;;;;;;4.55;3.15;;;;;;;20.62;43.64;100261.53;5091264;28;20032;-81
2020/12/02 02:45:21;;;;;;;;;;;;;;;20.61;43.60;100264.19;5073174;28;20071;-78
2020/12/02 02:47:47;;;;;;;3.92;3.20;;;;;;;20.62;43.66;100261.53;5092923;28;19978;-80
2020/12/02 02:50:15;;;;;;;4.95;3.42;;;;;;;20.62;43.73;100266.81;5092328;28;20507;-80
2020/12/02 02:52:42;;;;;;;5.32;3.75;;;;;;;20.62;43.68;100261.53;5082068;28;20108;-78
2020/12/02 02:55:11;;;;;;;4.57;3.40;;;;;;;20.61;43.66;100270.34;5070269;28;20178;-80
2020/12/02 02:57:37;;;;;;;4.05;3.53;;;;;;;20.63;43.73;100267.66;5072192;28;20032;-79
2020/12/02 03:00:08;;;;;;;5.60;3.17;;;;;;;20.61;43.77;100264.19;5074492;28;20047;-80
2020/12/02 03:02:34;;;;;;;4.55;3.33;;;;;;;20.61;43.73;100262.44;5092353;28;20540;-81
2020/12/02 03:05:01;;;;;;;4.40;3.47;;;;;;;20.62;43.75;100268.56;5090767;28;20124;-78
2020/12/02 03:07:26;;;;;;;4.35;3.60;;;;;;;20.62;43.81;100263.28;5082287;28;20082;-80
2020/12/02 03:09:52;;;;;;;4.45;3.38;;;;;;;20.61;43.71;100265.06;5071342;28;20040;-79
2020/12/02 03:12:18;;;;;;;4.28;3.42;;;;;;;20.62;43.71;100260.66;5071580;28;20396;-81
2020/12/02 03:14:44;;;;;;;5.30;3.90;;;;;;;20.61;43.85;100251.03;5054801;28;20078;-79
2020/12/02 03:17:19;;;;;;;4.40;3.38;;;;;;;20.58;43.72;100254.59;5073197;28;20447;-78
2020/12/02 03:19:52;;;;;;;4.25;3.38;;;;;;;20.58;43.59;100259.88;5079844;28;20028;-78
2020/12/02 03:22:21;;;;;;;5.03;3.75;;;;;;;20.59;43.88;100258.97;5093046;28;20036;-78
2020/12/02 03:24:47;;;;;;;4.72;3.78;;;;;;;20.59;43.49;100253.69;5089569;28;20053;-79
2020/12/02 03:27:13;;;;;;;4.03;3.30;;;;;;;20.59;43.72;100251.06;5089899;28;20029;-77
2020/12/02 03:29:38;;;;;;;4.90;3.92;;;;;;;20.60;43.88;100251.91;5087572;28;20028;-78
2020/12/02 03:32:04;;;;;;;3.75;3.25;;;;;;;20.59;44.09;100251.06;5088551;28;20038;-79
2020/12/02 03:34:29;;;;;;;5.65;4.28;;;;;;;20.58;43.86;100251.09;5090620;28;20036;-79
2020/12/02 03:36:56;;;;;;;4.45;3.63;;;;;;;20.59;43.53;100248.44;5091476;28;20028;-81
2020/12/02 03:39:23;;;;;;;6.90;3.80;;;;;;;20.58;43.86;100249.34;5091396;28;20028;-79
2020/12/02 03:41:49;;;;;;;3.92;3.10;;;;;;;20.58;43.87;100240.56;5090116;28;20116;-81
2020/12/02 03:44:14;;;;;;;4.15;3.55;;;;;;;20.59;43.88;100240.53;5090814;28;20099;-78
2020/12/02 03:46:40;;;;;;;4.40;3.50;;;;;;;20.58;43.69;100244.06;5089893;28;20032;-80
2020/12/02 03:49:07;;;;;;;4.53;3.70;;;;;;;20.59;43.66;100247.56;5087062;28;20115;-80
2020/12/02 03:51:34;;;;;;;4.65;3.55;;;;;;;20.60;43.87;100246.66;5053253;28;20033;-80
2020/12/02 03:53:59;;;;;;;5.47;4.07;;;;;;;20.58;43.71;100243.19;5070969;28;20116;-81
2020/12/02 03:56:26;;;;;;;5.18;3.42;;;;;;;20.58;43.90;100240.56;5070322;28;20119;-81
2020/12/02 03:58:51;;;;;;;4.68;3.75;;;;;;;20.57;43.77;100242.34;5061577;28;20036;-79
2020/12/02 04:01:17;;;;;;;4.75;3.55;;;;;;;20.57;43.81;100244.09;5084611;28;20405;-79
2020/12/02 04:03:42;;;;;;;4.88;3.42;;;;;;;20.56;43.71;100232.69;5089031;28;20582;-78
2020/12/02 04:06:10;;;;;;;4.80;3.67;;;;;;;20.56;43.67;100232.69;5088812;28;20109;-80
2020/12/02 04:08:40;;;;;;;4.78;3.70;;;;;;;20.56;43.73;100224.81;5072309;28;20127;-79
2020/12/02 04:11:06;;;;;;;4.65;3.67;;;;;;;20.56;43.84;100221.28;5088740;28;20516;-80
2020/12/02 04:13:32;;;;;;;4.28;3.53;;;;;;;20.55;43.89;100225.72;5089750;28;20532;-80
2020/12/02 04:15:57;;;;;;;5.30;3.92;;;;;;;20.56;43.82;100226.56;5090214;28;20063;-79
2020/12/02 04:18:23;;;;;;;5.00;3.38;;;;;;;20.55;43.91;100228.34;5088094;28;20489;-81
2020/12/02 04:20:49;;;;;;;4.53;3.80;;;;;;;20.54;43.71;100230.13;5090479;28;20047;-80
2020/12/02 04:23:14;;;;;;;4.65;3.85;;;;;;;20.55;43.61;100230.97;5088905;28;20032;-79
2020/12/02 04:25:40;;;;;;;4.85;3.85;;;;;;;20.55;43.67;100223.06;5090162;28;20024;-81
2020/12/02 04:28:06;;;;;;;3.85;3.45;;;;;;;20.56;43.86;100218.66;5082961;28;20150;-79
2020/12/02 04:30:31;;;;;;;4.30;3.28;;;;;;;20.55;43.87;100228.34;5088934;28;20496;-81
2020/12/02 04:32:56;;;;;;;4.20;3.55;;;;;;;20.55;43.64;100228.34;5090530;28;20115;-78
2020/12/02 04:35:22;;;;;;;3.83;3.05;;;;;;;20.55;43.74;100217.81;5091085;28;20040;-79
2020/12/02 04:37:47;;;;;;;5.30;3.70;;;;;;;20.54;43.92;100223.97;5090467;28;20027;-78
2020/12/02 04:40:28;;;;;;;4.47;3.75;;;;;;;20.53;43.64;100224.88;5071711;28;20460;-81
2020/12/02 04:43:00;;;;;;;3.85;3.28;;;;;;;20.54;43.53;100216.97;5068285;28;20021;-79
2020/12/02 04:45:29;;;;;;;5.60;4.07;;;;;;;20.54;43.98;100219.59;5068213;28;20039;-80
2020/12/02 04:47:58;;;;;;;3.72;3.15;;;;;;;20.53;43.78;100225.75;5068555;28;20708;-80
2020/12/02 04:50:27;;;;;;;4.35;3.40;;;;;;;20.54;43.72;100216.06;5068304;28;20052;-78
2020/12/02 04:53:08;;;;;;;4.30;3.75;;;;;;;20.52;43.89;100216.13;5068371;28;20060;-79
2020/12/02 04:55:33;;;;;;;4.38;3.60;;;;;;;20.54;43.90;100213.44;5068532;28;20029;-80
2020/12/02 04:57:58;;;;;;;5.22;3.60;;;;;;;20.51;43.72;100213.50;5069445;28;20413;-79
2020/12/02 05:00:30;;;;;;;3.72;3.20;;;;;;;20.50;43.91;100217.91;5078850;28;20032;-81
2020/12/02 05:03:10;;;;;;;4.53;3.65;;;;;;;20.48;43.78;100214.44;5090423;28;20095;-80
2020/12/02 05:05:36;;;;;;;6.32;3.70;;;;;;;20.47;43.96;100211.88;5076208;28;20047;-80
2020/12/02 05:08:21;;;;;;;4.20;3.65;;;;;;;20.47;43.80;100214.50;5070085;28;20037;-81
2020/12/02 05:10:47;;;;;;;5.05;3.75;;;;;;;20.48;43.93;100208.31;5071129;28;20896;-81
2020/12/02 05:13:12;;;;;;;4.60;3.50;;;;;;;20.49;43.77;100210.91;5071349;28;20046;-80
2020/12/02 05:15:39;;;;;;;4.55;3.85;;;;;;;20.48;44.17;100208.31;5069897;28;20020;-80
2020/12/02 05:18:13;;;;;;;4.65;3.60;;;;;;;20.48;43.73;100217.09;5069987;28;20033;-81
2020/12/02 05:20:38;;;;;;;4.78;4.10;;;;;;;20.48;44.10;100213.56;5069833;28;20047;-80
2020/12/02 05:23:17;;;;;;;3.72;2.92;;;;;;;20.48;43.71;100213.56;5071135;28;20037;-79
2020/12/02 05:25:43;;;;;;;4.70;3.60;;;;;;;20.49;43.81;100210.03;5067250;28;20028;-79
2020/12/02 05:28:20;;;;;;;4.95;3.70;;;;;;;20.51;43.84;100214.38;5089993;28;20032;-81
2020/12/02 05:30:47;;;;;;;5.25;3.75;;;;;;;20.49;43.78;100203.03;5087507;28;20075;-79
2020/12/02 05:33:12;;;;;;;4.55;3.65;;;;;;;20.48;43.87;100201.28;5068478;28;20040;-81
2020/12/02 05:35:59;;;;;;;4.95;3.97;;;;;;;20.46;43.89;100203.09;5069351;28;20100;-79
2020/12/02 05:38:34;;;;;;;4.68;3.85;;;;;;;20.45;43.64;100203.13;5083473;28;20062;-79
2020/12/02 05:41:03;;;;;;;4.50;4.05;;;;;;;20.47;43.89;100194.28;5089426;28;20127;-78
2020/12/02 05:43:56;;;;;;;5.63;3.55;;;;;;;20.46;43.82;100207.50;5089968;28;20028;-80
2020/12/02 05:46:44;;;;;;;5.35;3.78;;;;;;;20.46;43.64;100200.44;5087610;28;20151;-81
2020/12/02 05:49:17;;;;;;;4.88;3.88;;;;;;;20.49;43.80;100204.78;5089859;28;20036;-81
2020/12/02 05:51:42;;;;;;;4.15;3.58;;;;;;;20.47;43.89;100196.91;5089859;28;20044;-77
2020/12/02 05:54:25;;;;;;;4.90;3.97;;;;;;;20.46;43.61;100200.44;5090019;28;20028;-80
2020/12/02 05:56:51;;;;;;;6.80;4.47;;;;;;;20.48;43.85;100203.03;5093482;28;20036;-81
2020/12/02 05:59:18;;;;;;;5.32;4.20;;;;;;;20.46;43.76;100208.34;5093418;28;20078;-79
2020/12/02 06:01:45;;;;;;;4.75;4.05;;;;;;;20.47;43.79;100204.81;5074508;28;20465;-79
2020/12/02 06:04:12;;;;;;;6.78;4.70;;;;;;;20.48;43.74;100209.19;5085411;28;20051;-78
2020/12/02 06:06:38;;;;;;;5.45;4.07;;;;;;;20.48;43.87;100206.56;5093264;28;20077;-79
2020/12/02 06:09:04;;;;;;;4.93;4.00;;;;;;;20.48;43.85;100205.66;5093944;28;20040;-82
2020/12/02 06:11:35;;;;;;;5.00;4.20;;;;;;;20.48;43.85;100200.41;5092348;28;20072;-81
2020/12/02 06:14:03;;;;;;;5.72;4.03;;;;;;;20.48;43.88;100203.03;5094270;28;20518;-80
2020/12/02 06:16:38;;;;;;;5.18;4.45;;;;;;;20.48;43.86;100203.03;5092945;28;20036;-78
2020/12/02 06:19:27;;;;;;;5.90;4.65;;;;;;;20.46;43.75;100203.09;5075159;28;20586;-83
2020/12/02 06:21:56;;;;;;;11.18;4.43;;;;;;;20.48;43.79;100209.19;5092631;28;20082;-80
2020/12/02 06:24:41;;;;;;;17.13;4.95;;;;;;;20.48;43.87;100201.28;5091014;28;20028;-79
2020/12/02 06:27:17;;;;;;;15.23;5.47;;;;;;;20.54;43.83;100206.44;5093127;28;20036;-77
2020/12/02 06:29:45;;;;;;;10.75;6.03;;;;;;;20.59;43.98;100206.31;5092618;28;20035;-75
2020/12/02 06:32:13;;;;;;;7.57;5.22;;;;;;;20.66;44.03;100200.00;5092412;28;20484;-74
2020/12/02 06:34:38;;;;;;;9.50;5.68;;;;;;;20.74;44.03;100207.72;5091025;28;20047;-79
2020/12/02 06:37:14;;;;;;;10.25;5.65;;;;;;;20.89;43.66;100211.78;5093415;28;20032;-75
2020/12/02 06:39:58;;;;;;;14.18;5.38;;;;;;;21.01;43.75;100202.72;5093810;28;20032;-79
2020/12/02 06:42:38;;;;;;;7.95;4.57;;;;;;;21.09;43.59;100208.66;5093865;28;20067;-78
2020/12/02 06:45:25;;;;;;;6.85;4.75;;;;;;;21.13;43.67;100206.81;5088350;28;20031;-79
2020/12/02 06:47:50;;;;;;;10.90;4.30;;;;;;;21.16;43.55;100214.63;5093808;28;20050;-77
2020/12/02 06:50:22;;;;;;;7.30;5.20;;;;;;;21.15;43.69;100212.91;5093878;28;20392;-79
2020/12/02 06:52:47;;;;;;;14.02;5.47;;;;;;;21.14;43.51;100208.53;5093405;28;20072;-76
2020/12/02 06:55:15;;;;;;;25.70;5.18;;;;;;;21.14;43.82;100211.16;5091288;28;20441;-76
2020/12/02 06:57:42;;;;;;;6.75;4.97;;;;;;;21.07;44.06;100207.81;5083380;28;20090;-80
2020/12/02 07:00:38;;;;;;;21.38;5.28;;;;;;;21.06;43.83;100207.88;5089696;28;20039;-77
2020/12/02 07:03:16;;;;;;;10.77;5.18;;;;;;;21.01;44.02;100208.00;5085501;28;20408;-80
2020/12/02 07:05:44;;;;;;;7.50;4.97;;;;;;;21.00;44.11;100203.63;5080131;28;20111;-75
2020/12/02 07:08:20;;;;;;;14.00;5.18;;;;;;;20.98;43.98;100201.00;5086974;28;20544;-79
2020/12/02 07:10:56;;;;;;;10.98;5.93;;;;;;;20.96;44.40;100201.97;5093338;28;20067;-79
2020/12/02 07:13:22;;;;;;;10.52;5.70;;;;;;;20.94;44.11;100194.09;5093225;28;20044;-77
2020/12/02 07:15:48;;;;;;;16.27;6.57;;;;;;;20.91;44.19;100190.66;5086304;28;20097;-80
2020/12/02 07:18:18;;;;;;;17.05;6.57;;;;;;;20.88;44.25;100199.53;5087839;28;20085;-77
2020/12/02 07:20:47;;;;;;;10.73;6.15;;;;;;;20.85;44.17;100196.97;5071212;28;20039;-77
2020/12/02 07:23:16;;;;;;;13.15;6.15;;;;;;;20.82;44.21;100194.38;5071425;28;20040;-79
2020/12/02 07:25:42;;;;;;;11.27;6.70;;;;;;;20.80;44.08;100194.44;5069080;28;20432;-80
2020/12/02 07:28:19;;;;;;;15.20;6.97;;;;;;;20.78;44.14;100190.97;5069815;28;20051;-75
2020/12/02 07:30:46;;;;;;;9.68;7.35;;;;;;;20.78;44.03;100192.75;5088304;28;20085;-80
2020/12/02 07:33:26;;;;;;;13.93;7.45;;;;;;;20.74;43.93;100198.97;5091156;28;20043;-79
2020/12/02 07:36:13;;;;;;;12.00;7.45;;;;;;;20.74;44.05;100191.91;5072668;28;20135;-81
2020/12/02 07:38:38;;;;;;;11.55;6.25;;;;;;;20.74;44.21;100198.97;5071313;28;20477;-80
2020/12/02 07:41:24;;;;;;;11.52;7.15;;;;;;;20.71;43.92;100194.59;5072567;28;20041;-80
2020/12/02 07:43:51;;;;;;;14.77;7.75;;;;;;;20.73;44.17;100191.97;5071900;28;20048;-77
2020/12/02 07:46:21;;;;;;;11.77;7.68;;;;;;;20.72;43.92;100198.13;5081898;28;20059;-80
2020/12/02 07:48:52;;;;;;;12.05;7.47;;;;;;;20.72;44.01;100198.97;5092989;28;20032;-75
2020/12/02 07:51:27;;;;;;;12.50;7.70;;;;;;;20.69;44.07;100199.91;5072841;28;20134;-79
2020/12/02 07:53:59;;;;;;;12.55;8.65;;;;;;;20.70;43.94;100200.81;5081567;28;20075;-77
2020/12/02 07:56:30;;;;;;;13.48;7.55;;;;;;;20.72;43.83;100198.13;5093265;28;20396;-79
2020/12/02 07:59:03;;;;;;;13.52;7.60;;;;;;;20.69;43.99;100199.91;5092895;28;20036;-78
2020/12/02 08:01:35;;;;;;;14.93;8.30;;;;;;;20.66;43.88;100196.50;5092203;28;20059;-75
2020/12/02 08:04:13;;;;;;;14.50;7.43;;;;;;;20.65;43.71;100198.25;5093404;28;20052;-74
2020/12/02 08:06:46;;;;;;;9.07;7.53;;;;;;;20.68;43.75;100198.19;5091844;28;20028;-74
2020/12/02 08:09:13;;;;;;;13.85;7.68;;;;;;;20.67;43.80;100196.47;5091789;28;20119;-76
2020/12/02 08:11:57;;;;;;;12.23;7.65;;;;;;;20.66;43.72;100197.34;5093013;28;20036;-75
2020/12/02 08:14:41;;;;;;;10.95;7.43;;;;;;;20.66;43.82;100199.13;5081171;28;20082;-77
2020/12/02 08:17:23;;;;;;;12.18;8.13;;;;;;;20.67;43.78;100192.97;5072659;28;20036;-75
2020/12/02 08:19:58;;;;;;;15.60;7.90;;;;;;;20.67;43.84;100187.69;5072829;28;20041;-75
2020/12/02 08:22:27;;;;;;;12.68;8.30;;;;;;;20.67;43.77;100191.19;5072703;28;20039;-73
2020/12/02 08:25:09;;;;;;;11.10;8.00;;;;;;;20.63;43.70;100194.78;5080036;28;20082;-78
2020/12/02 08:27:35;;;;;;;10.88;8.18;;;;;;;20.65;43.72;100190.34;5090844;28;20043;-77
2020/12/02 08:30:09;;;;;;;13.27;8.27;;;;;;;20.64;43.71;100180.72;5081398;28;20036;-75
2020/12/02 08:32:46;;;;;;;11.57;8.10;;;;;;;20.65;43.58;100176.34;5090905;28;20036;-75
2020/12/02 08:35:40;;;;;;;9.73;7.13;;;;;;;20.63;43.61;100176.34;5092486;28;20036;-75
2020/12/02 08:38:13;;;;;;;9.98;7.70;;;;;;;20.63;43.53;100176.34;5090850;28;20044;-77
2020/12/02 08:40:43;;;;;;;11.43;7.55;;;;;;;20.64;43.69;100172.81;5091929;28;20115;-79
2020/12/02 08:43:38;;;;;;;13.43;7.95;;;;;;;20.67;43.61;100164.00;5091698;28;20028;-79
2020/12/02 08:46:06;;;;;;;10.60;7.32;;;;;;;20.66;43.64;100170.19;5072599;28;20485;-75
2020/12/02 08:48:37;;;;;;;11.27;7.30;;;;;;;20.68;43.50;100163.97;5071623;28;20043;-79
2020/12/02 08:51:06;;;;;;;11.98;8.63;;;;;;;20.67;43.39;100166.63;5083779;28;20407;-75
2020/12/02 08:53:32;;;;;;;12.73;9.27;;;;;;;20.67;43.61;100164.84;5092178;28;20020;-80
2020/12/02 08:55:59;;;;;;;18.42;9.00;;;;;;;20.68;43.74;100163.97;5091877;28;20161;-75
2020/12/02 08:58:24;;;;;;;15.07;9.40;;;;;;;20.68;43.56;100165.75;5090390;28;20058;-75
2020/12/02 09:00:50;;;;;;;19.10;9.98;;;;;;;20.66;43.34;100162.28;5080601;28;20461;-76
2020/12/02 09:03:17;;;;;;;14.98;9.93;;;;;;;20.65;43.63;100157.91;5071383;28;20032;-76
2020/12/02 09:05:44;;;;;;;20.20;10.13;;;;;;;20.65;43.42;100155.28;5070286;28;20033;-75
2020/12/02 09:08:09;;;;;;;14.48;10.18;;;;;;;20.64;43.49;100157.03;5072028;28;20085;-74
2020/12/02 09:10:34;;;;;;;17.90;10.75;;;;;;;20.61;43.86;100153.59;5071000;28;20032;-77
2020/12/02 09:13:00;;;;;;;14.95;10.20;;;;;;;20.61;43.41;100149.22;5071407;28;20037;-74
2020/12/02 09:15:27;;;;;;;13.63;9.50;;;;;;;20.61;43.53;100151.84;5071383;28;20074;-73
2020/12/02 09:17:56;;;;;;;20.63;9.43;;;;;;;20.62;43.64;100150.06;5071390;28;20032;-75
2020/12/02 09:20:23;;;;;;;17.60;9.95;;;;;;;20.61;43.62;100148.34;5072394;28;20028;-74
2020/12/02 09:22:49;;;;;;;15.15;9.68;;;;;;;20.61;43.55;100143.97;5071341;28;20028;-75
2020/12/02 09:25:15;;;;;;;14.48;9.40;;;;;;;20.60;43.47;100141.34;5081157;28;20101;-75
2020/12/02 09:27:40;;;;;;;12.88;9.52;;;;;;;20.58;43.54;100137.88;5091952;28;20056;-76
2020/12/02 09:30:06;;;;;;;13.23;8.80;;;;;;;20.59;43.79;100142.25;5102852;28;20040;-76
2020/12/02 09:32:32;;;;;;;11.75;8.35;;;;;;;20.58;43.64;100132.63;5095296;28;20103;-75
2020/12/02 09:34:57;;;;;;;11.60;8.90;;;;;;;20.57;43.45;100136.16;5093973;28;20133;-74
2020/12/02 09:37:23;;;;;;;13.20;8.45;;;;;;;20.57;43.43;100138.78;5095448;28;20067;-77
2020/12/02 09:39:49;;;;;;;10.93;8.57;;;;;;;20.58;43.30;100144.03;5094651;28;20512;-75
2020/12/02 09:42:27;;;;;;;14.20;8.27;;;;;;;20.57;43.53;100137.03;5093620;28;20546;-75
2020/12/02 09:45:07;;;;;;;9.88;8.55;;;;;;;20.57;43.43;100138.78;5094540;28;20040;-73
2020/12/02 09:47:32;;;;;;;11.18;8.45;;;;;;;20.59;43.57;100129.09;5094990;28;20036;-76
2020/12/02 09:49:58;;;;;;;11.93;8.38;;;;;;;20.57;43.48;100122.97;5095019;28;20038;-74
2020/12/02 09:52:35;;;;;;;11.63;8.63;;;;;;;20.56;43.49;100124.78;5095083;28;20055;-74
2020/12/02 09:55:11;;;;;;;11.82;9.23;;;;;;;20.54;43.26;100116.91;5093546;28;20040;-76
2020/12/02 09:57:37;;;;;;;12.25;8.52;;;;;;;20.56;43.45;100124.78;5094397;28;20485;-76
2020/12/02 10:00:07;;;;;;;10.35;8.15;;;;;;;20.57;43.43;100121.22;5090397;28;20032;-76
2020/12/02 10:02:36;;;;;;;13.77;9.02;;;;;;;20.57;43.45;100115.09;5074575;28;20044;-77
2020/12/02 10:05:35;;;;;;;11.35;8.93;;;;;;;20.56;43.25;100108.97;5074394;28;20041;-81
2020/12/02 10:08:19;;;;;;;10.45;8.70;;;;;;;20.57;43.28;100102.81;5074946;28;20385;-77
2020/12/02 10:11:08;;;;;;;14.13;8.43;;;;;;;20.55;43.45;100099.34;5083801;28;20040;-75
2020/12/02 10:13:49;;;;;;;12.48;8.40;;;;;;;20.57;43.31;100091.41;5095252;28;20036;-76
2020/12/02 10:16:33;;;;;;;11.80;8.57;;;;;;;20.58;43.25;100085.22;5072905;28;20036;-78
2020/12/02 10:19:13;;;;;;;;;;;;;;;20.54;43.48;100080.06;5082357;28;20032;-78
2020/12/02 10:21:46;;;;;;;12.55;8.25;;;;;;;20.58;43.49;100079.97;5073764;28;19912;-75
2020/12/02 10:24:58;;;;;;;11.45;9.05;;;;;;;20.58;43.34;100080.84;5084201;28;20024;-77
2020/12/02 10:27:56;;;;;;;20.95;7.85;;;;;;;20.57;43.41;100078.22;5088704;28;20496;-75
2020/12/02 10:30:27;;;;;;;15.73;8.23;;;;;;;20.60;43.47;100070.25;5085259;28;20035;-76
2020/12/02 10:33:03;;;;;;;12.50;8.75;;;;;;;20.61;43.34;100067.63;5094881;28;20423;-78
2020/12/02 10:35:35;;;;;;;10.93;8.35;;;;;;;20.61;43.28;100064.97;5076518;28;20078;-75
2020/12/02 10:38:07;;;;;;;19.63;8.65;;;;;;;20.62;43.17;100068.47;5092806;28;20169;-78
2020/12/02 10:40:49;;;;;;;14.07;7.78;;;;;;;20.61;43.19;100056.19;5092236;28;20081;-75
2020/12/02 10:43:31;;;;;;;11.88;8.52;;;;;;;20.61;43.33;100054.44;5076155;28;20094;-79
2020/12/02 10:46:01;;;;;;;18.15;8.57;;;;;;;20.62;43.28;100044.75;5092633;28;20024;-77
2020/12/02 10:48:42;;;;;;;16.02;8.82;;;;;;;20.63;43.26;100038.59;5092632;28;20494;-77
2020/12/02 10:51:13;;;;;;;18.55;8.10;;;;;;;20.63;43.22;100035.97;5093559;28;20412;-76
2020/12/02 10:53:41;;;;;;;16.95;9.95;;;;;;;20.62;43.47;100026.34;5093516;28;20028;-75
2020/12/02 10:56:08;;;;;;;13.00;9.60;;;;;;;20.62;43.37;100027.22;5093660;28;20029;-74
2020/12/02 10:58:33;;;;;;;13.05;9.10;;;;;;;20.62;43.61;100024.59;5092258;28;20076;-76
2020/12/02 11:01:03;;;;;;;13.35;8.88;;;;;;;20.62;43.33;100023.69;5093533;28;20594;-77
2020/12/02 11:03:32;;;;;;;12.23;9.05;;;;;;;20.62;43.25;100021.94;5093763;28;20511;-76
2020/12/02 11:06:12;;;;;;;15.10;9.85;;;;;;;20.61;43.32;100024.59;5092198;28;20051;-76
2020/12/02 11:08:59;;;;;;;14.07;8.60;;;;;;;20.62;43.39;100013.19;5091903;28;20407;-77
2020/12/02 11:12:00;;;;;;;14.32;8.82;;;;;;;20.60;43.17;100013.22;5091756;28;20040;-77
2020/12/02 11:14:47;;;;;;;14.88;8.63;;;;;;;20.60;43.27;100015.84;5071557;28;20033;-75
2020/12/02 11:17:43;;;;;;;14.48;8.45;;;;;;;20.61;43.38;100014.97;5072767;28;20044;-75
2020/12/02 11:20:19;;;;;;;14.65;8.88;;;;;;;20.59;43.34;100016.75;5071701;28;20033;-78
2020/12/02 11:23:10;;;;;;;16.17;8.63;;;;;;;20.61;43.51;100012.31;5073046;28;20036;-79
2020/12/02 11:25:47;;;;;;;18.20;9.57;;;;;;;20.60;43.15;100002.69;5079893;28;20044;-78
2020/12/02 11:28:15;;;;;;;19.85;9.20;;;;;;;20.60;43.29;99999.19;5093105;28;20438;-78
2020/12/02 11:30:43;;;;;;;13.68;8.77;;;;;;;20.60;43.29;100000.06;5100835;28;20040;-77
2020/12/02 11:33:17;;;;;;;11.32;8.43;;;;;;;20.61;43.36;99990.38;5091577;28;20036;-78
2020/12/02 11:36:01;;;;;;;14.00;7.13;;;;;;;20.60;43.35;99991.28;5091308;28;20507;-76
2020/12/02 11:38:51;;;;;;;17.63;9.00;;;;;;;20.61;43.16;99996.53;5074788;28;20040;-79
2020/12/02 11:41:46;;;;;;;14.32;8.68;;;;;;;20.59;43.13;99985.16;5090809;28;20409;-74
2020/12/02 11:44:27;;;;;;;19.00;9.02;;;;;;;20.58;43.43;99986.06;5091780;28;20032;-74